createdAt,value
2018-06-23T00:01:35.646Z,102044.63
2018-06-23T00:04:04.798Z,102043.81
2018-06-23T00:06:33.903Z,102046.34
2018-06-23T00:09:03.069Z,102043.77
2018-06-23T00:11:32.240Z,102043.27
2018-06-23T00:14:01.381Z,102045.42
2018-06-23T00:16:30.526Z,102042.86
2018-06-23T00:18:59.629Z,102033.23
2018-06-23T00:21:28.952Z,102037.95
2018-06-23T00:23:58.049Z,102042.56
2018-06-23T00:26:30.580Z,102045.59
2018-06-23T00:29:00.521Z,102052.09
2018-06-23T00:31:29.676Z,102052.19
2018-06-23T00:33:58.777Z,102048.92
2018-06-23T00:36:27.889Z,102047.75
2018-06-23T00:38:57.027Z,102049.27
2018-06-23T00:41:26.145Z,102038.84
2018-06-23T00:43:55.225Z,102038.95
2018-06-23T00:46:24.316Z,102043.34
2018-06-23T00:48:53.437Z,102042.94
2018-06-23T00:51:22.526Z,102041.61
2018-06-23T00:53:51.609Z,102047.36
2018-06-23T00:56:20.730Z,102048.17
2018-06-23T00:59:00.897Z,102038.19
2018-06-23T01:01:30.121Z,102041.20
2018-06-23T01:03:59.214Z,102038.49
2018-06-23T01:06:28.328Z,102040.02
2018-06-23T01:08:57.410Z,102037.74
2018-06-23T01:11:26.537Z,102037.34
2018-06-23T01:13:55.625Z,102025.15
2018-06-23T01:16:24.737Z,102033.83
2018-06-23T01:18:53.938Z,102038.78
2018-06-23T01:21:23.021Z,102034.39
2018-06-23T01:23:52.127Z,102044.70
2018-06-23T01:26:21.228Z,102037.94
2018-06-23T01:28:50.341Z,102042.39
2018-06-23T01:31:19.453Z,102047.05
2018-06-23T01:33:48.557Z,102047.31
2018-06-23T01:36:17.662Z,102049.73
2018-06-23T01:38:46.781Z,102049.27
2018-06-23T01:41:15.881Z,102048.91
2018-06-23T01:43:44.997Z,102046.00
2018-06-23T01:46:14.113Z,102041.06
2018-06-23T01:48:43.206Z,102037.27
2018-06-23T01:51:12.414Z,102039.13
2018-06-23T01:53:41.497Z,102044.05
2018-06-23T01:56:10.613Z,102044.41
2018-06-23T01:58:39.716Z,102043.63
2018-06-23T02:01:08.818Z,102037.05
2018-06-23T02:03:37.921Z,102040.80
2018-06-23T02:06:07.049Z,102036.92
2018-06-23T02:08:36.216Z,102041.22
2018-06-23T02:11:05.378Z,102037.83
2018-06-23T02:13:34.469Z,102038.68
2018-06-23T02:16:08.824Z,102036.33
2018-06-23T02:18:43.121Z,102033.36
2018-06-23T02:21:17.473Z,102036.78
2018-06-23T02:23:51.841Z,102030.41
2018-06-23T02:26:26.269Z,102038.02
2018-06-23T02:29:00.737Z,102028.58
2018-06-23T02:31:35.139Z,102033.30
2018-06-23T02:34:09.484Z,102036.50
2018-06-23T02:36:38.585Z,102039.27
2018-06-23T02:39:09.041Z,102038.45
2018-06-23T02:41:38.141Z,102034.70
2018-06-23T02:44:07.290Z,102037.47
2018-06-23T02:46:36.422Z,102039.00
2018-06-23T02:49:05.545Z,102032.73
2018-06-23T02:51:34.653Z,102025.23
2018-06-23T02:54:03.794Z,102021.36
2018-06-23T02:56:32.889Z,102025.87
2018-06-23T02:59:01.991Z,102030.37
2018-06-23T03:01:31.119Z,102033.66
2018-06-23T03:04:00.192Z,102031.55
2018-06-23T03:06:29.297Z,102028.93
2018-06-23T03:08:58.393Z,102025.27
2018-06-23T03:11:27.521Z,102025.19
2018-06-23T03:13:56.662Z,102032.63
2018-06-23T03:16:25.777Z,102028.19
2018-06-23T03:18:54.889Z,102030.97
2018-06-23T03:21:23.988Z,102029.38
2018-06-23T03:23:53.185Z,102039.56
2018-06-23T03:26:22.353Z,102042.31
2018-06-23T03:28:51.429Z,102040.90
2018-06-23T03:31:20.517Z,102053.19
2018-06-23T03:33:49.607Z,102049.36
2018-06-23T03:36:18.697Z,102053.58
2018-06-23T03:38:47.787Z,102048.37
2018-06-23T03:41:16.894Z,102048.75
2018-06-23T03:43:46.017Z,102056.87
2018-06-23T03:46:15.068Z,102055.27
2018-06-23T03:48:44.197Z,102051.52
2018-06-23T03:51:13.289Z,102053.77
2018-06-23T03:53:42.470Z,102061.36
2018-06-23T03:56:11.586Z,102065.19
2018-06-23T03:58:40.681Z,102071.46
2018-06-23T04:01:09.868Z,102075.49
2018-06-23T04:03:39.029Z,102071.55
2018-06-23T04:06:08.141Z,102074.95
2018-06-23T04:08:37.217Z,102081.23
2018-06-23T04:11:06.322Z,102082.92
2018-06-23T04:13:35.413Z,102085.61
2018-06-23T04:16:04.626Z,102083.31
2018-06-23T04:18:33.717Z,102079.31
2018-06-23T04:21:02.857Z,102070.13
2018-06-23T04:23:31.993Z,102067.37
2018-06-23T04:26:01.169Z,102074.53
2018-06-23T04:28:30.185Z,102074.34
2018-06-23T04:30:59.289Z,102080.97
2018-06-23T04:33:29.404Z,102075.27
2018-06-23T04:35:58.529Z,102073.00
2018-06-23T04:38:27.758Z,102074.88
2018-06-23T04:40:56.865Z,102071.23
2018-06-23T04:43:25.973Z,102076.80
2018-06-23T04:45:55.090Z,102072.69
2018-06-23T04:48:24.465Z,102068.57
2018-06-23T04:50:53.551Z,102065.04
2018-06-23T04:53:22.750Z,102061.94
2018-06-23T04:55:52.341Z,102067.94
2018-06-23T04:58:21.482Z,102068.98
2018-06-23T05:00:50.622Z,102072.64
2018-06-23T05:03:19.729Z,102070.58
2018-06-23T05:05:48.833Z,102074.67
2018-06-23T05:08:18.349Z,102080.91
2018-06-23T05:10:47.429Z,102077.80
2018-06-23T05:13:16.525Z,102078.72
2018-06-23T05:15:45.657Z,102076.58
2018-06-23T05:18:14.761Z,102072.44
2018-06-23T05:20:43.849Z,102077.39
2018-06-23T05:23:12.941Z,102083.00
2018-06-23T05:25:42.113Z,102079.65
2018-06-23T05:28:11.322Z,102082.42
2018-06-23T05:30:40.449Z,102085.95
2018-06-23T05:33:09.533Z,102085.75
2018-06-23T05:35:38.630Z,102078.23
2018-06-23T05:38:08.133Z,102071.97
2018-06-23T05:40:37.233Z,102073.86
2018-06-23T05:43:06.341Z,102072.09
2018-06-23T05:45:35.432Z,102077.64
2018-06-23T05:48:04.601Z,102073.86
2018-06-23T05:50:33.729Z,102070.16
2018-06-23T05:53:02.844Z,102056.38
2018-06-23T05:55:31.977Z,102059.83
2018-06-23T05:58:01.118Z,102066.75
2018-06-23T06:00:30.200Z,102065.30
2018-06-23T06:02:59.369Z,102066.83
2018-06-23T06:05:28.577Z,102072.31
2018-06-23T06:07:57.697Z,102073.22
2018-06-23T06:10:27.187Z,102070.72
2018-06-23T06:12:56.427Z,102069.08
2018-06-23T06:15:25.530Z,102069.41
2018-06-23T06:17:54.639Z,102073.32
2018-06-23T06:20:23.750Z,102069.20
2018-06-23T06:22:52.897Z,102060.59
2018-06-23T06:25:22.413Z,102064.10
2018-06-23T06:27:51.510Z,102058.41
2018-06-23T06:30:20.657Z,102057.31
2018-06-23T06:32:49.757Z,102059.14
2018-06-23T06:35:19.021Z,102061.09
2018-06-23T06:37:48.077Z,102051.09
2018-06-23T06:40:17.169Z,102056.61
2018-06-23T06:42:47.337Z,102055.71
2018-06-23T06:45:16.549Z,102049.27
2018-06-23T06:47:45.757Z,102055.05
2018-06-23T06:50:15.927Z,102050.64
2018-06-23T06:52:45.205Z,102050.70
2018-06-23T06:55:15.345Z,102048.67
2018-06-23T06:57:44.582Z,102036.09
2018-06-23T07:00:13.914Z,102042.31
2018-06-23T07:02:43.141Z,102047.89
2018-06-23T07:05:12.285Z,102047.97
2018-06-23T07:07:41.485Z,102045.26
2018-06-23T07:10:14.023Z,102040.55
2018-06-23T07:12:43.185Z,102039.30
2018-06-23T07:15:14.932Z,102049.27
2018-06-23T07:17:45.337Z,102054.92
2018-06-23T07:20:15.301Z,102063.12
2018-06-23T07:22:44.554Z,102069.08
2018-06-23T07:25:13.686Z,102080.05
2018-06-23T07:27:42.893Z,102085.11
2018-06-23T07:30:13.098Z,102083.73
2018-06-23T07:32:42.294Z,102075.54
2018-06-23T07:35:11.556Z,102074.26
2018-06-23T07:37:40.529Z,102074.05
2018-06-23T07:40:09.738Z,102077.45
2018-06-23T07:42:39.197Z,102068.88
2018-06-23T07:45:09.433Z,102065.89
2018-06-23T07:47:38.609Z,102068.84
2018-06-23T07:50:07.691Z,102061.05
2018-06-23T07:52:36.781Z,102064.58
2018-06-23T07:55:05.981Z,102056.73
2018-06-23T07:57:35.069Z,102055.33
2018-06-23T08:00:04.369Z,102056.57
2018-06-23T08:02:33.465Z,102062.25
2018-06-23T08:05:02.569Z,102054.63
2018-06-23T08:07:31.682Z,102052.92
2018-06-23T08:10:00.773Z,102056.40
2018-06-23T08:12:29.889Z,102054.31
2018-06-23T08:14:59.038Z,102049.43
2018-06-23T08:17:28.181Z,102055.61
2018-06-23T08:19:57.285Z,102053.92
2018-06-23T08:22:26.437Z,102053.54
2018-06-23T08:24:55.621Z,102052.51
2018-06-23T08:27:24.649Z,102053.84
2018-06-23T08:29:53.863Z,102049.53
2018-06-23T08:32:22.941Z,102046.93
2018-06-23T08:34:52.021Z,102053.69
2018-06-23T08:37:21.129Z,102055.91
2018-06-23T08:39:50.237Z,102064.53
2018-06-23T08:42:19.326Z,102061.02
2018-06-23T08:44:48.425Z,102056.71
2018-06-23T08:47:17.505Z,102054.23
2018-06-23T08:49:46.593Z,102058.13
2018-06-23T08:52:15.709Z,102052.02
2018-06-23T08:54:44.812Z,102052.83
2018-06-23T08:57:13.929Z,102059.35
2018-06-23T08:59:43.162Z,102058.16
2018-06-23T09:02:12.281Z,102047.34
2018-06-23T09:04:41.395Z,102046.34
2018-06-23T09:07:10.565Z,102052.54
2018-06-23T09:09:39.653Z,102050.73
2018-06-23T09:12:08.745Z,102057.72
2018-06-23T09:14:38.241Z,102050.79
2018-06-23T09:17:07.345Z,102054.19
2018-06-23T09:19:36.508Z,102056.43
2018-06-23T09:22:05.582Z,102066.28
2018-06-23T09:24:34.761Z,102056.22
2018-06-23T09:27:03.937Z,102058.46
2018-06-23T09:29:33.088Z,102062.45
2018-06-23T09:32:02.212Z,102060.00
2018-06-23T09:34:31.377Z,102067.02
2018-06-23T09:37:00.444Z,102062.75
2018-06-23T09:39:29.654Z,102067.98
2018-06-23T09:41:58.753Z,102061.78
2018-06-23T09:44:27.898Z,102059.97
2018-06-23T09:46:57.060Z,102057.44
2018-06-23T09:49:27.113Z,102050.97
2018-06-23T09:51:56.265Z,102051.41
2018-06-23T09:54:25.403Z,102055.80
2018-06-23T09:56:54.657Z,102051.45
2018-06-23T09:59:23.771Z,102054.08
2018-06-23T10:01:52.994Z,102043.56
2018-06-23T10:04:22.095Z,102045.98
2018-06-23T10:06:51.204Z,102041.39
2018-06-23T10:09:20.309Z,102030.84
2018-06-23T10:11:49.505Z,102030.06
2018-06-23T10:14:18.602Z,102029.12
2018-06-23T10:16:47.789Z,102028.52
2018-06-23T10:19:16.889Z,102038.96
2018-06-23T10:21:45.985Z,102036.80
2018-06-23T10:24:15.086Z,102035.55
2018-06-23T10:26:44.213Z,102030.45
2018-06-23T10:29:14.021Z,102029.61
2018-06-23T10:31:43.175Z,102033.53
2018-06-23T10:34:12.314Z,102033.52
2018-06-23T10:36:41.478Z,102030.44
2018-06-23T10:39:11.714Z,102034.82
2018-06-23T10:41:41.480Z,102023.48
2018-06-23T10:44:10.576Z,102021.25
2018-06-23T10:46:39.705Z,102019.91
2018-06-23T10:49:08.823Z,102025.62
2018-06-23T10:51:38.188Z,102022.12
2018-06-23T10:54:07.319Z,102015.50
2018-06-23T10:56:36.450Z,102012.94
2018-06-23T10:59:05.721Z,102014.66
2018-06-23T11:01:34.824Z,102015.15
2018-06-23T11:04:03.953Z,102016.03
2018-06-23T11:06:33.094Z,102019.55
2018-06-23T11:09:02.186Z,102023.03
2018-06-23T11:11:31.305Z,102027.88
2018-06-23T11:14:00.410Z,102023.91
2018-06-23T11:16:29.501Z,102026.13
2018-06-23T11:18:58.593Z,102022.63
2018-06-23T11:21:27.771Z,102017.37
2018-06-23T11:23:56.899Z,102016.02
2018-06-23T11:26:26.057Z,102015.63
2018-06-23T11:28:55.203Z,102003.77
2018-06-23T11:31:24.305Z,102005.05
2018-06-23T11:33:53.404Z,102003.21
2018-06-23T11:36:22.509Z,102000.08
2018-06-23T11:38:51.871Z,102006.33
2018-06-23T11:41:21.007Z,102004.17
2018-06-23T11:43:50.034Z,102002.41
2018-06-23T11:46:19.132Z,102003.37
2018-06-23T11:48:48.226Z,102006.01
2018-06-23T11:51:17.512Z,101997.67
2018-06-23T11:53:46.660Z,102000.31
2018-06-23T11:56:15.784Z,101999.89
2018-06-23T11:58:44.935Z,101997.64
2018-06-23T12:01:14.269Z,101994.52
2018-06-23T12:03:43.521Z,101989.13
2018-06-23T12:06:12.699Z,101982.37
2018-06-23T12:08:41.809Z,101986.34
2018-06-23T12:11:10.914Z,101982.75
2018-06-23T12:13:40.021Z,101984.28
2018-06-23T12:16:09.105Z,101987.44
2018-06-23T12:18:38.225Z,101987.13
2018-06-23T12:21:07.494Z,101990.20
2018-06-23T12:23:36.593Z,101981.39
2018-06-23T12:26:05.745Z,101977.00
2018-06-23T12:28:34.857Z,101988.85
2018-06-23T12:31:04.061Z,101981.38
2018-06-23T12:33:33.449Z,101981.23
2018-06-23T12:36:02.612Z,101973.78
2018-06-23T12:38:32.049Z,101976.38
2018-06-23T12:41:01.171Z,101971.79
2018-06-23T12:43:30.267Z,101979.08
2018-06-23T12:45:59.372Z,101970.27
2018-06-23T12:48:28.485Z,101963.73
2018-06-23T12:50:57.587Z,101974.30
2018-06-23T12:53:26.677Z,101966.51
2018-06-23T12:55:55.839Z,101968.45
2018-06-23T12:58:24.961Z,101965.41
2018-06-23T13:00:54.066Z,101969.83
2018-06-23T13:03:23.169Z,101969.02
2018-06-23T13:05:52.365Z,101970.35
2018-06-23T13:08:21.460Z,101971.86
2018-06-23T13:10:50.597Z,101980.16
2018-06-23T13:13:19.736Z,101966.98
2018-06-23T13:15:48.833Z,101970.09
2018-06-23T13:18:17.925Z,101964.79
2018-06-23T13:20:47.106Z,101957.38
2018-06-23T13:23:16.214Z,101962.89
2018-06-23T13:25:45.309Z,101963.41
2018-06-23T13:28:14.430Z,101963.77
2018-06-23T13:30:43.615Z,101968.12
2018-06-23T13:33:12.701Z,101965.89
2018-06-23T13:35:41.838Z,101958.09
2018-06-23T13:38:10.918Z,101966.84
2018-06-23T13:40:40.029Z,101957.29
2018-06-23T13:43:09.211Z,101951.67
2018-06-23T13:45:38.306Z,101953.45
2018-06-23T13:48:07.528Z,101949.44
2018-06-23T13:50:36.708Z,101943.80
2018-06-23T13:53:05.845Z,101946.09
2018-06-23T13:55:34.921Z,101956.48
2018-06-23T13:58:04.170Z,101947.77
2018-06-23T14:00:33.259Z,101951.23
2018-06-23T14:03:02.351Z,101943.72
2018-06-23T14:05:31.457Z,101943.77
2018-06-23T14:08:01.269Z,101939.67
2018-06-23T14:10:30.362Z,101941.77
2018-06-23T14:12:59.476Z,101937.78
2018-06-23T14:15:29.275Z,101949.52
2018-06-23T14:17:59.451Z,101939.09
2018-06-23T14:20:28.582Z,101936.98
2018-06-23T14:22:57.699Z,101942.49
2018-06-23T14:25:26.813Z,101935.00
2018-06-23T14:27:55.925Z,101933.81
2018-06-23T14:30:25.097Z,101937.12
2018-06-23T14:32:54.253Z,101932.47
2018-06-23T14:35:23.385Z,101924.08
2018-06-23T14:37:52.513Z,101931.41
2018-06-23T14:40:21.593Z,101926.99
2018-06-23T14:42:50.755Z,101923.49
2018-06-23T14:45:19.908Z,101925.20
2018-06-23T14:47:49.001Z,101927.05
2018-06-23T14:50:18.127Z,101917.98
2018-06-23T14:52:47.266Z,101918.01
2018-06-23T14:55:16.353Z,101923.80
2018-06-23T14:57:45.441Z,101915.55
2018-06-23T15:00:14.557Z,101913.41
2018-06-23T15:02:44.493Z,101915.54
2018-06-23T15:05:13.629Z,101915.08
2018-06-23T15:07:42.730Z,101913.80
2018-06-23T15:10:23.049Z,101900.33
2018-06-23T15:13:03.661Z,101901.88
2018-06-23T15:15:32.792Z,101902.98
2018-06-23T15:18:01.961Z,101902.78
2018-06-23T15:20:31.058Z,101898.03
2018-06-23T15:23:04.209Z,101892.71
2018-06-23T15:25:33.410Z,101900.42
2018-06-23T15:28:02.494Z,101895.88
2018-06-23T15:30:31.597Z,101902.33
2018-06-23T15:33:00.781Z,101891.55
2018-06-23T15:35:29.958Z,101899.27
2018-06-23T15:37:59.042Z,101882.94
2018-06-23T15:40:28.171Z,101880.06
2018-06-23T15:42:57.289Z,101881.30
2018-06-23T15:45:26.433Z,101874.37
2018-06-23T15:47:55.625Z,101872.22
2018-06-23T15:50:25.217Z,101867.55
2018-06-23T15:52:54.357Z,101867.09
2018-06-23T15:55:23.553Z,101868.16
2018-06-23T15:57:52.661Z,101860.47
2018-06-23T16:00:21.877Z,101861.19
2018-06-23T16:02:51.096Z,101852.55
2018-06-23T16:05:20.172Z,101856.81
2018-06-23T16:07:49.278Z,101848.53
2018-06-23T16:10:21.853Z,101835.87
2018-06-23T16:12:51.201Z,101829.38
2018-06-23T16:15:20.311Z,101833.98
2018-06-23T16:17:49.385Z,101823.16
2018-06-23T16:20:18.469Z,101828.05
2018-06-23T16:22:48.064Z,101822.88
2018-06-23T16:25:17.381Z,101825.31
2018-06-23T16:27:46.571Z,101811.98
2018-06-23T16:30:15.693Z,101818.44
2018-06-23T16:32:44.781Z,101815.97
2018-06-23T16:35:14.115Z,101821.09
2018-06-23T16:37:43.134Z,101820.59
2018-06-23T16:40:12.238Z,101815.48
2018-06-23T16:42:41.321Z,101816.80
2018-06-23T16:45:10.430Z,101811.05
2018-06-23T16:47:39.505Z,101808.62
2018-06-23T16:50:08.626Z,101804.00
2018-06-23T16:52:37.732Z,101793.86
2018-06-23T16:55:07.797Z,101789.37
2018-06-23T16:57:36.970Z,101796.78
2018-06-23T17:00:06.150Z,101788.45
2018-06-23T17:02:35.249Z,101788.78
2018-06-23T17:05:04.344Z,101789.66
2018-06-23T17:07:37.304Z,101791.46
2018-06-23T17:10:06.453Z,101785.61
2018-06-23T17:15:32.886Z,101776.77
2018-06-23T17:18:01.970Z,101783.59
2018-06-23T17:20:31.117Z,101769.33
2018-06-23T17:23:00.213Z,101778.14
2018-06-23T17:25:29.317Z,101766.55
2018-06-23T17:27:58.468Z,101781.27
2018-06-23T17:30:27.566Z,101768.41
2018-06-23T17:32:56.665Z,101763.69
2018-06-23T17:35:25.838Z,101764.96
2018-06-23T17:37:54.961Z,101767.03
2018-06-23T17:40:24.085Z,101767.41
2018-06-23T17:42:53.694Z,101758.20
2018-06-23T17:45:22.809Z,101762.58
2018-06-23T17:47:52.019Z,101750.97
2018-06-23T17:50:21.121Z,101745.78
2018-06-23T17:52:50.224Z,101756.45
2018-06-23T17:55:19.318Z,101753.55
2018-06-23T17:57:48.642Z,101757.43
2018-06-23T18:00:17.521Z,101755.36
2018-06-23T18:02:46.705Z,101757.82
2018-06-23T18:05:15.833Z,101753.98
2018-06-23T18:07:44.990Z,101756.30
2018-06-23T18:10:14.093Z,101748.73
2018-06-23T18:12:43.200Z,101748.83
2018-06-23T18:15:12.301Z,101745.22
2018-06-23T18:17:41.397Z,101746.09
2018-06-23T18:20:10.551Z,101753.44
2018-06-23T18:22:39.669Z,101748.13
2018-06-23T18:25:08.777Z,101736.34
2018-06-23T18:27:37.853Z,101745.72
2018-06-23T18:30:07.087Z,101742.97
2018-06-23T18:32:36.205Z,101741.54
2018-06-23T18:35:05.321Z,101744.16
2018-06-23T18:37:34.429Z,101737.20
2018-06-23T18:40:03.593Z,101738.52
2018-06-23T18:42:32.706Z,101740.61
2018-06-23T18:45:01.814Z,101741.78
2018-06-23T18:47:30.913Z,101742.95
2018-06-23T18:49:59.999Z,101736.66
2018-06-23T18:52:29.089Z,101743.59
2018-06-23T18:54:58.189Z,101743.58
2018-06-23T18:57:27.289Z,101742.90
2018-06-23T18:59:56.409Z,101741.87
2018-06-23T19:02:30.826Z,101743.73
2018-06-23T19:04:59.951Z,101739.11
2018-06-23T19:07:29.448Z,101738.09
2018-06-23T19:09:58.573Z,101738.14
2018-06-23T19:12:27.688Z,101740.02
2018-06-23T19:14:56.765Z,101732.54
2018-06-23T19:17:25.897Z,101735.20
2018-06-23T19:19:55.049Z,101729.13
2018-06-23T19:22:24.189Z,101733.25
2018-06-23T19:24:53.285Z,101735.79
2018-06-23T19:27:22.408Z,101741.04
2018-06-23T19:29:51.518Z,101731.80
2018-06-23T19:32:20.674Z,101734.86
2018-06-23T19:34:49.773Z,101735.34
2018-06-23T19:37:18.891Z,101745.07
2018-06-23T19:39:47.999Z,101739.86
2018-06-23T19:42:17.102Z,101745.25
2018-06-23T19:44:46.221Z,101741.27
2018-06-23T19:47:15.786Z,101742.70
2018-06-23T19:49:44.957Z,101749.27
2018-06-23T19:52:14.062Z,101744.06
2018-06-23T19:54:43.389Z,101738.02
2018-06-23T19:57:12.478Z,101749.51
2018-06-23T19:59:41.570Z,101748.20
2018-06-23T20:02:10.662Z,101754.80
2018-06-23T20:04:39.747Z,101753.59
2018-06-23T20:07:08.955Z,101751.84
2018-06-23T20:09:38.038Z,101756.16
2018-06-23T20:12:08.505Z,101762.42
2018-06-23T20:14:37.665Z,101758.18
2018-06-23T20:17:06.745Z,101759.45
2018-06-23T20:19:35.850Z,101761.34
2018-06-23T20:22:05.071Z,101760.49
2018-06-23T20:24:34.149Z,101767.55
2018-06-23T20:27:03.246Z,101764.92
2018-06-23T20:29:32.345Z,101765.30
2018-06-23T20:32:01.701Z,101763.67
2018-06-23T20:34:30.818Z,101765.83
2018-06-23T20:36:59.918Z,101768.56
2018-06-23T20:39:29.037Z,101760.77
2018-06-23T20:41:58.127Z,101762.63
2018-06-23T20:44:27.229Z,101763.50
2018-06-23T20:46:56.325Z,101766.58
2018-06-23T20:49:25.425Z,101759.58
2018-06-23T20:51:54.554Z,101764.34
2018-06-23T20:54:23.674Z,101764.34
2018-06-23T20:56:52.762Z,101756.52
2018-06-23T20:59:21.875Z,101763.94
2018-06-23T21:01:50.977Z,101760.19
2018-06-23T21:04:20.074Z,101763.20
2018-06-23T21:06:49.182Z,101757.11
2018-06-23T21:09:18.287Z,101753.14
2018-06-23T21:11:47.377Z,101746.63
2018-06-23T21:14:16.481Z,101757.96
2018-06-23T21:16:45.585Z,101754.06
2018-06-23T21:19:14.697Z,101750.10
2018-06-23T21:21:43.801Z,101753.59
2018-06-23T21:24:12.898Z,101748.35
2018-06-23T21:26:42.018Z,101748.35
2018-06-23T21:29:12.181Z,101743.03
2018-06-23T21:31:41.275Z,101741.23
2018-06-23T21:34:10.445Z,101748.23
2018-06-23T21:36:39.690Z,101739.98
2018-06-23T21:39:09.877Z,101738.33
2018-06-23T21:41:39.105Z,101739.19
2018-06-23T21:44:08.477Z,101745.80
2018-06-23T21:46:37.585Z,101740.95
2018-06-23T21:49:06.813Z,101743.13
2018-06-23T21:51:36.030Z,101740.55
2018-06-23T21:54:05.133Z,101735.33
2018-06-23T21:56:34.234Z,101732.80
2018-06-23T21:59:03.349Z,101738.07
2018-06-23T22:01:32.441Z,101733.23
2018-06-23T22:04:01.554Z,101730.11
2018-06-23T22:06:30.654Z,101735.33
2018-06-23T22:08:59.790Z,101732.81
2018-06-23T22:11:28.865Z,101736.69
2018-06-23T22:13:57.996Z,101743.73
2018-06-23T22:16:27.811Z,101742.53
2018-06-23T22:18:56.966Z,101739.01
2018-06-23T22:21:26.210Z,101735.03
2018-06-23T22:23:55.309Z,101736.42
2018-06-23T22:26:24.426Z,101738.09
2018-06-23T22:28:53.565Z,101732.89
2018-06-23T22:31:22.753Z,101733.34
2018-06-23T22:33:51.849Z,101736.78
2018-06-23T22:36:20.989Z,101724.69
2018-06-23T22:38:50.133Z,101731.23
2018-06-23T22:41:20.193Z,101738.63
2018-06-23T22:43:49.300Z,101735.63
2018-06-23T22:46:18.406Z,101737.30
2018-06-23T22:48:47.510Z,101730.76
2018-06-23T22:51:16.746Z,101732.09
2018-06-23T22:53:45.871Z,101728.13
2018-06-23T22:56:14.977Z,101730.36
2018-06-23T22:58:44.125Z,101728.13
2018-06-23T23:01:13.225Z,101722.97
2018-06-23T23:03:42.330Z,101726.47
2018-06-23T23:06:11.422Z,101725.16
2018-06-23T23:08:40.525Z,101719.08
2018-06-23T23:11:09.669Z,101726.50
2018-06-23T23:13:38.797Z,101721.26
2018-06-23T23:16:07.890Z,101718.67
2018-06-23T23:18:37.002Z,101724.32
2018-06-23T23:21:06.142Z,101718.66
2018-06-23T23:23:35.330Z,101712.52
2018-06-23T23:26:04.462Z,101716.48
2018-06-23T23:28:33.562Z,101713.83
2018-06-23T23:31:02.685Z,101712.12
2018-06-23T23:33:31.777Z,101708.17
2018-06-23T23:36:00.874Z,101709.47
2018-06-23T23:38:29.964Z,101709.46
2018-06-23T23:40:59.065Z,101705.56
2018-06-23T23:43:28.163Z,101706.86
2018-06-23T23:45:57.274Z,101700.31
2018-06-23T23:48:26.365Z,101692.50
2018-06-23T23:50:55.534Z,101687.67
2018-06-23T23:53:24.617Z,101691.64
2018-06-23T23:55:53.711Z,101685.09
2018-06-23T23:58:22.809Z,101678.13
